createdAt,value
2023-03-03T00:00:32.268Z,45.10
2023-03-03T00:03:05.718Z,45.00
2023-03-03T00:05:34.651Z,45.10
2023-03-03T00:08:03.721Z,45.10
2023-03-03T00:10:32.209Z,44.90
2023-03-03T00:13:01.641Z,44.90
2023-03-03T00:15:32.517Z,45.00
2023-03-03T00:18:01.783Z,45.00
2023-03-03T00:20:37.744Z,45.00
2023-03-03T00:23:18.220Z,45.20
2023-03-03T00:25:47.598Z,45.30
2023-03-03T00:28:24.729Z,45.40
2023-03-03T00:30:57.101Z,45.40
2023-03-03T00:33:33.588Z,45.90
2023-03-03T00:36:31.814Z,46.10
2023-03-03T00:39:20.392Z,45.90
2023-03-03T00:41:49.859Z,46.30
2023-03-03T00:44:43.986Z,46.30
2023-03-03T00:47:31.221Z,46.10
2023-03-03T00:50:26.972Z,46.30
2023-03-03T00:53:07.688Z,46.70
2023-03-03T00:55:37.057Z,46.90
2023-03-03T00:58:06.169Z,47.30
2023-03-03T01:00:41.045Z,48.40
2023-03-03T01:03:15.742Z,47.60
2023-03-03T01:05:44.849Z,47.40
2023-03-03T01:08:13.812Z,47.50
2023-03-03T01:10:46.804Z,47.20
2023-03-03T01:13:15.272Z,47.10
2023-03-03T01:15:44.389Z,47.10
2023-03-03T01:18:16.301Z,47.40
2023-03-03T01:20:44.895Z,47.40
2023-03-03T01:23:13.851Z,47.40
2023-03-03T01:25:42.430Z,47.40
2023-03-03T01:28:10.894Z,47.30
2023-03-03T01:30:39.524Z,47.80
2023-03-03T01:33:07.950Z,47.80
2023-03-03T01:35:37.729Z,47.60
2023-03-03T01:38:06.100Z,47.60
2023-03-03T01:40:34.739Z,47.70
2023-03-03T01:43:04.699Z,47.80
2023-03-03T01:45:42.433Z,47.80
2023-03-03T01:48:15.348Z,47.80
2023-03-03T01:50:50.353Z,47.90
2023-03-03T01:53:23.833Z,48.50
2023-03-03T01:55:54.694Z,48.80
2023-03-03T01:58:27.429Z,48.70
2023-03-03T02:01:01.448Z,48.60
2023-03-03T02:03:31.105Z,48.50
2023-03-03T02:06:07.262Z,48.40
2023-03-03T02:08:43.842Z,48.20
2023-03-03T02:11:13.719Z,48.20
2023-03-03T02:13:42.085Z,48.20
2023-03-03T02:16:10.585Z,48.10
2023-03-03T02:18:38.988Z,48.50
2023-03-03T02:21:11.975Z,48.70
2023-03-03T02:23:49.825Z,48.70
2023-03-03T02:26:22.789Z,49.20
2023-03-03T02:28:55.897Z,49.60
2023-03-03T02:31:26.645Z,49.90
2023-03-03T02:33:56.805Z,50.00
2023-03-03T02:36:26.925Z,49.90
2023-03-03T02:39:02.338Z,49.80
2023-03-03T02:41:36.448Z,50.10
2023-03-03T02:44:08.718Z,50.90
2023-03-03T02:46:39.456Z,51.20
2023-03-03T02:49:09.513Z,51.20
2023-03-03T02:51:38.512Z,51.80
2023-03-03T02:54:08.322Z,51.40
2023-03-03T02:56:39.005Z,51.00
2023-03-03T02:59:07.866Z,50.80
2023-03-03T03:01:42.025Z,50.80
2023-03-03T03:04:16.384Z,51.40
2023-03-03T03:06:47.761Z,51.40
2023-03-03T03:09:19.371Z,51.10
2023-03-03T03:11:50.634Z,51.10
2023-03-03T03:14:23.481Z,51.80
2023-03-03T03:16:52.501Z,53.00
2023-03-03T03:19:21.889Z,53.00
2023-03-03T03:21:50.472Z,52.70
2023-03-03T03:24:19.463Z,52.40
2023-03-03T03:26:56.053Z,52.20
2023-03-03T03:29:25.912Z,51.90
2023-03-03T03:31:54.975Z,51.40
2023-03-03T03:34:23.426Z,51.20
2023-03-03T03:36:53.530Z,51.10
2023-03-03T03:39:23.909Z,51.00
2023-03-03T03:41:55.201Z,50.90
2023-03-03T03:44:25.394Z,50.80
2023-03-03T03:46:55.303Z,51.00
2023-03-03T03:49:23.871Z,51.10
2023-03-03T03:51:54.532Z,51.10
2023-03-03T03:54:26.228Z,51.20
2023-03-03T03:56:56.843Z,51.10
2023-03-03T03:59:25.673Z,51.10
2023-03-03T04:01:54.471Z,51.10
2023-03-03T04:04:24.756Z,51.10
2023-03-03T04:06:53.409Z,51.00
2023-03-03T04:09:21.779Z,51.10
2023-03-03T04:11:50.798Z,51.10
2023-03-03T04:14:21.417Z,51.10
2023-03-03T04:16:49.688Z,51.20
2023-03-03T04:19:18.903Z,51.40
2023-03-03T04:21:47.311Z,51.50
2023-03-03T04:24:15.758Z,51.40
2023-03-03T04:26:44.641Z,51.40
2023-03-03T04:29:13.646Z,52.00
2023-03-03T04:31:45.371Z,51.50
2023-03-03T04:34:13.690Z,51.60
2023-03-03T04:36:43.099Z,51.80
2023-03-03T04:39:11.495Z,52.10
2023-03-03T04:41:40.444Z,52.30
2023-03-03T04:44:08.892Z,52.20
2023-03-03T04:46:37.404Z,52.20
2023-03-03T04:49:10.739Z,52.20
2023-03-03T04:51:40.766Z,52.10
2023-03-03T04:54:09.176Z,51.90
2023-03-03T04:56:37.721Z,51.80
2023-03-03T04:59:06.137Z,51.80
2023-03-03T05:01:34.581Z,51.80
2023-03-03T05:04:04.103Z,51.80
2023-03-03T05:06:33.827Z,51.90
2023-03-03T05:09:02.553Z,51.80
2023-03-03T05:11:32.613Z,52.10
2023-03-03T05:14:01.005Z,52.50
2023-03-03T05:16:29.535Z,52.40
2023-03-03T05:18:57.911Z,52.40
2023-03-03T05:21:26.394Z,52.40
2023-03-03T05:23:56.146Z,53.20
2023-03-03T05:26:24.512Z,52.80
2023-03-03T05:28:52.809Z,53.20
2023-03-03T05:31:21.455Z,53.70
2023-03-03T05:33:49.807Z,54.20
2023-03-03T05:36:18.277Z,54.30
2023-03-03T05:38:46.754Z,54.30
2023-03-03T05:41:16.493Z,54.30
2023-03-03T05:43:45.150Z,54.40
2023-03-03T05:46:13.764Z,54.60
2023-03-03T05:48:42.242Z,55.00
2023-03-03T05:51:10.600Z,55.30
2023-03-03T05:53:38.988Z,55.70
2023-03-03T05:56:07.792Z,56.10
2023-03-03T05:58:37.471Z,56.20
2023-03-03T06:01:05.983Z,56.10
2023-03-03T06:03:34.390Z,56.30
2023-03-03T06:06:02.825Z,56.30
2023-03-03T06:08:32.796Z,56.10
2023-03-03T06:11:01.183Z,56.20
2023-03-03T06:13:30.408Z,55.10
2023-03-03T06:16:00.218Z,55.50
2023-03-03T06:18:28.872Z,55.20
2023-03-03T06:20:57.428Z,54.70
2023-03-03T06:23:25.782Z,54.20
2023-03-03T06:25:54.188Z,54.10
2023-03-03T06:28:22.655Z,53.90
2023-03-03T06:30:55.203Z,53.80
2023-03-03T06:33:25.466Z,53.40
2023-03-03T06:35:54.844Z,52.90
2023-03-03T06:38:23.600Z,52.20
2023-03-03T06:40:51.954Z,50.70
2023-03-03T06:43:20.606Z,50.20
2023-03-03T06:45:48.952Z,49.60
2023-03-03T06:48:17.332Z,49.20
2023-03-03T06:50:47.036Z,48.80
2023-03-03T06:53:17.518Z,48.40
2023-03-03T06:55:46.431Z,48.10
2023-03-03T06:58:17.055Z,48.30
2023-03-03T07:00:47.080Z,47.40
2023-03-03T07:03:17.835Z,47.10
2023-03-03T07:05:47.547Z,46.80
2023-03-03T07:08:18.070Z,46.30
2023-03-03T07:10:47.601Z,46.00
2023-03-03T07:13:22.293Z,45.60
2023-03-03T07:15:53.340Z,44.80
2023-03-03T07:18:35.236Z,44.00
2023-03-03T07:21:16.098Z,43.80
2023-03-03T07:23:46.698Z,42.90
2023-03-03T07:26:18.553Z,41.90
2023-03-03T07:28:53.918Z,41.40
2023-03-03T07:31:31.283Z,40.80
2023-03-03T07:34:01.662Z,40.60
2023-03-03T07:36:35.942Z,40.40
2023-03-03T07:39:24.148Z,40.20
2023-03-03T07:41:52.594Z,39.20
2023-03-03T07:44:23.670Z,38.00
2023-03-03T07:46:52.832Z,38.20
2023-03-03T07:49:25.755Z,38.00
2023-03-03T07:51:58.582Z,37.80
2023-03-03T07:54:36.063Z,37.50
2023-03-03T07:57:16.401Z,37.10
2023-03-03T07:59:49.201Z,36.80
2023-03-03T08:02:39.053Z,36.60
2023-03-03T08:05:31.244Z,36.00
2023-03-03T08:08:17.862Z,35.50
2023-03-03T08:10:50.051Z,35.20
2023-03-03T08:13:20.718Z,35.00
2023-03-03T08:15:53.310Z,34.80
2023-03-03T08:18:26.071Z,34.90
2023-03-03T08:20:57.617Z,34.60
2023-03-03T08:23:27.434Z,34.40
2023-03-03T08:25:56.079Z,34.20
2023-03-03T08:28:24.581Z,33.70
2023-03-03T08:31:05.526Z,33.20
2023-03-03T08:33:37.928Z,32.90
2023-03-03T08:38:50.633Z,31.80
2023-03-03T08:41:19.009Z,31.30
2023-03-03T08:43:47.262Z,31.10
2023-03-03T08:46:16.506Z,30.90
2023-03-03T08:48:45.030Z,30.90
2023-03-03T08:51:13.554Z,30.80
2023-03-03T08:53:41.870Z,30.50
2023-03-03T08:56:11.546Z,30.30
2023-03-03T08:58:49.852Z,30.00
2023-03-03T09:01:28.191Z,29.90
2023-03-03T09:03:56.705Z,29.70
2023-03-03T09:06:25.100Z,29.40
2023-03-03T09:08:54.806Z,29.10
2023-03-03T09:11:27.779Z,29.10
2023-03-03T09:14:02.895Z,28.70
2023-03-03T09:16:39.670Z,28.50
2023-03-03T09:19:25.808Z,28.30
2023-03-03T09:21:55.827Z,28.10
2023-03-03T09:24:27.994Z,28.10
2023-03-03T09:26:59.552Z,28.00
2023-03-03T09:29:29.446Z,27.90
2023-03-03T09:32:01.177Z,27.70
2023-03-03T09:34:40.984Z,27.40
2023-03-03T09:37:23.528Z,27.20
2023-03-03T09:39:53.667Z,26.60
2023-03-03T09:42:46.805Z,26.40
2023-03-03T09:45:25.529Z,26.40
2023-03-03T09:48:23.838Z,26.30
2023-03-03T09:51:08.470Z,26.20
2023-03-03T09:53:52.441Z,26.20
2023-03-03T09:56:26.492Z,26.00
2023-03-03T09:59:10.204Z,26.00
2023-03-03T10:01:52.011Z,26.00
2023-03-03T10:04:43.223Z,25.90
2023-03-03T10:07:29.003Z,25.70
2023-03-03T10:10:27.290Z,25.80
2023-03-03T10:13:10.269Z,25.60
2023-03-03T10:15:47.921Z,25.80
2023-03-03T10:18:33.728Z,25.60
2023-03-03T10:21:11.863Z,25.60
2023-03-03T10:23:56.907Z,25.40
2023-03-03T10:26:46.535Z,25.30
2023-03-03T10:29:34.120Z,25.40
2023-03-03T10:32:27.813Z,25.40
2023-03-03T10:35:23.283Z,25.20
2023-03-03T10:38:06.065Z,25.00
2023-03-03T10:40:40.080Z,24.70
2023-03-03T10:43:32.435Z,24.60
2023-03-03T10:46:18.416Z,24.60
2023-03-03T10:49:13.782Z,24.90
2023-03-03T10:51:52.642Z,25.00
2023-03-03T10:54:36.930Z,25.20
2023-03-03T10:57:15.240Z,25.40
2023-03-03T10:59:53.451Z,25.70
2023-03-03T11:02:26.453Z,25.60
2023-03-03T11:05:23.040Z,26.00
2023-03-03T11:07:57.163Z,26.40
2023-03-03T11:10:52.418Z,26.80
2023-03-03T11:13:27.483Z,27.20
2023-03-03T11:16:07.332Z,27.10
2023-03-03T11:18:45.282Z,27.10
2023-03-03T11:21:22.908Z,27.20
2023-03-03T11:24:19.833Z,27.20
2023-03-03T11:27:07.797Z,27.20
2023-03-03T11:29:51.144Z,27.00
2023-03-03T11:32:28.620Z,27.10
2023-03-03T11:35:06.849Z,27.10
2023-03-03T11:37:46.682Z,26.80
2023-03-03T11:40:21.189Z,26.80
2023-03-03T11:43:01.598Z,26.80
2023-03-03T11:45:38.687Z,26.60
2023-03-03T11:48:15.634Z,26.30
2023-03-03T11:50:53.729Z,26.00
2023-03-03T11:53:33.363Z,25.70
2023-03-03T11:56:15.814Z,25.50
2023-03-03T11:58:48.441Z,25.40
2023-03-03T12:01:22.454Z,25.60
2023-03-03T12:03:57.768Z,25.90
2023-03-03T12:06:40.935Z,26.10
2023-03-03T12:09:32.799Z,26.40
2023-03-03T12:12:08.101Z,26.30
2023-03-03T12:15:00.733Z,25.90
2023-03-03T12:17:50.775Z,26.00
2023-03-03T12:20:27.648Z,25.80
2023-03-03T12:23:07.829Z,26.30
2023-03-03T12:25:41.812Z,26.00
2023-03-03T12:28:17.331Z,25.50
2023-03-03T12:31:29.763Z,25.60
2023-03-03T12:34:02.960Z,25.90
2023-03-03T12:36:58.616Z,25.70
2023-03-03T12:39:39.796Z,25.20
2023-03-03T12:42:18.095Z,25.10
2023-03-03T12:44:51.757Z,25.10
2023-03-03T12:47:29.009Z,24.60
2023-03-03T12:50:15.499Z,23.90
2023-03-03T12:52:54.593Z,22.40
2023-03-03T12:55:32.205Z,23.00
2023-03-03T12:58:12.720Z,22.80
2023-03-03T13:00:50.978Z,22.50
2023-03-03T13:03:32.095Z,22.20
2023-03-03T13:06:08.480Z,22.20
2023-03-03T13:08:54.505Z,22.30
2023-03-03T13:11:38.316Z,21.60
2023-03-03T13:14:18.976Z,21.80
2023-03-03T13:17:04.718Z,22.00
2023-03-03T13:19:39.607Z,22.20
2023-03-03T13:22:13.113Z,22.10
2023-03-03T13:24:53.053Z,22.10
2023-03-03T13:27:25.471Z,22.10
2023-03-03T13:30:01.826Z,22.20
2023-03-03T13:32:40.413Z,21.90
2023-03-03T13:35:22.040Z,22.00
2023-03-03T13:37:55.091Z,22.10
2023-03-03T13:40:27.170Z,22.00
2023-03-03T13:43:00.686Z,21.90
2023-03-03T13:45:36.912Z,21.60
2023-03-03T13:48:27.924Z,21.40
2023-03-03T13:50:59.533Z,21.40
2023-03-03T13:53:41.623Z,21.40
2023-03-03T13:56:26.576Z,21.30
2023-03-03T13:59:05.102Z,21.30
2023-03-03T14:01:47.573Z,21.30
2023-03-03T14:04:30.912Z,21.20
2023-03-03T14:07:08.276Z,21.30
2023-03-03T14:09:53.615Z,21.00
2023-03-03T14:12:30.678Z,20.80
2023-03-03T14:15:06.959Z,20.70
2023-03-03T14:17:44.880Z,20.70
2023-03-03T14:20:23.731Z,20.60
2023-03-03T14:22:56.140Z,21.10
2023-03-03T14:25:24.788Z,20.60
2023-03-03T14:28:03.748Z,20.30
2023-03-03T14:30:39.179Z,20.50
2023-03-03T14:33:22.761Z,20.60
2023-03-03T14:36:03.046Z,20.30
2023-03-03T14:38:58.291Z,20.50
2023-03-03T14:41:39.737Z,20.30
2023-03-03T14:44:28.227Z,20.20
2023-03-03T14:47:12.543Z,20.00
2023-03-03T14:49:42.577Z,20.10
2023-03-03T14:52:22.190Z,20.30
2023-03-03T14:54:52.874Z,20.30
2023-03-03T14:57:23.702Z,20.60
2023-03-03T15:00:02.679Z,20.70
2023-03-03T15:02:38.678Z,20.90
2023-03-03T15:05:22.898Z,20.80
2023-03-03T15:07:54.721Z,20.90
2023-03-03T15:10:35.378Z,21.00
2023-03-03T15:13:43.168Z,21.30
2023-03-03T15:16:17.837Z,21.50
2023-03-03T15:19:16.399Z,21.50
2023-03-03T15:21:57.125Z,21.90
2023-03-03T15:24:32.876Z,22.10
2023-03-03T15:27:06.633Z,22.30
2023-03-03T15:29:41.903Z,22.50
2023-03-03T15:32:22.503Z,22.60
2023-03-03T15:35:00.428Z,22.60
2023-03-03T15:37:47.230Z,22.80
2023-03-03T15:40:25.921Z,23.10
2023-03-03T15:43:03.217Z,23.30
2023-03-03T15:45:37.673Z,23.60
2023-03-03T15:48:21.834Z,23.90
2023-03-03T15:51:00.895Z,24.40
2023-03-03T15:53:56.502Z,24.70
2023-03-03T15:56:34.528Z,25.00
2023-03-03T15:59:35.343Z,25.30
2023-03-03T16:02:15.611Z,25.60
2023-03-03T16:04:53.932Z,26.00
2023-03-03T16:07:32.752Z,26.30
2023-03-03T16:10:13.368Z,26.70
2023-03-03T16:12:51.846Z,26.80
2023-03-03T16:15:34.023Z,27.20
2023-03-03T16:18:09.747Z,27.50
2023-03-03T16:20:44.881Z,28.00
2023-03-03T16:23:21.922Z,28.30
2023-03-03T16:26:42.205Z,28.60
2023-03-03T16:29:31.809Z,29.10
2023-03-03T16:32:04.249Z,29.20
2023-03-03T16:34:38.778Z,29.30
2023-03-03T16:37:16.308Z,29.60
2023-03-03T16:39:55.227Z,29.80
2023-03-03T16:42:30.424Z,30.00
2023-03-03T16:45:23.612Z,30.40
2023-03-03T16:48:04.577Z,30.60
2023-03-03T16:50:44.199Z,31.60
2023-03-03T16:53:25.057Z,31.70
2023-03-03T16:56:04.460Z,32.10
2023-03-03T16:58:45.239Z,32.30
2023-03-03T17:01:23.966Z,32.50
2023-03-03T17:04:15.438Z,32.90
2023-03-03T17:06:50.708Z,32.90
2023-03-03T17:09:45.762Z,33.20
2023-03-03T17:12:38.644Z,33.20
2023-03-03T17:15:17.787Z,33.40
2023-03-03T17:17:54.098Z,33.60
2023-03-03T17:20:33.958Z,33.90
2023-03-03T17:23:20.282Z,34.20
2023-03-03T17:25:56.488Z,34.50
2023-03-03T17:28:37.143Z,34.50
2023-03-03T17:31:14.369Z,34.80
2023-03-03T17:33:58.491Z,35.20
2023-03-03T17:36:37.601Z,35.00
2023-03-03T17:39:24.582Z,35.20
2023-03-03T17:41:59.423Z,35.30
2023-03-03T17:44:39.076Z,35.50
2023-03-03T17:47:12.602Z,35.40
2023-03-03T17:50:07.292Z,35.50
2023-03-03T17:52:57.285Z,35.90
2023-03-03T17:55:45.712Z,35.90
2023-03-03T17:58:37.173Z,36.00
2023-03-03T18:01:15.366Z,36.00
2023-03-03T18:04:17.918Z,36.40
2023-03-03T18:07:07.307Z,36.60
2023-03-03T18:09:56.178Z,36.50
2023-03-03T18:12:38.246Z,36.60
2023-03-03T18:15:29.065Z,36.80
2023-03-03T18:18:07.088Z,36.80
2023-03-03T18:21:03.697Z,37.00
2023-03-03T18:23:42.698Z,36.90
2023-03-03T18:26:30.996Z,37.00
2023-03-03T18:29:21.966Z,37.00
2023-03-03T18:32:20.921Z,37.30
2023-03-03T18:34:52.626Z,37.20
2023-03-03T18:37:43.965Z,37.20
2023-03-03T18:40:32.510Z,37.40
2023-03-03T18:43:21.109Z,37.40
2023-03-03T18:45:51.960Z,37.40
2023-03-03T18:48:22.176Z,37.50
2023-03-03T18:50:52.635Z,37.50
2023-03-03T18:53:29.655Z,38.30
2023-03-03T18:55:59.808Z,37.70
2023-03-03T18:58:35.044Z,37.80
2023-03-03T19:01:36.249Z,37.80
2023-03-03T19:04:25.564Z,37.90
2023-03-03T19:07:16.712Z,37.80
2023-03-03T19:09:57.362Z,37.80
2023-03-03T19:12:48.627Z,37.80
2023-03-03T19:15:45.240Z,37.80
2023-03-03T19:18:20.295Z,38.00
2023-03-03T19:20:54.362Z,38.10
2023-03-03T19:23:26.028Z,38.30
2023-03-03T19:26:33.032Z,38.30
2023-03-03T19:29:12.219Z,38.50
2023-03-03T19:31:49.850Z,38.50
2023-03-03T19:34:25.598Z,38.80
2023-03-03T19:37:03.881Z,38.80
2023-03-03T19:40:03.033Z,38.80
2023-03-03T19:42:46.520Z,38.80
2023-03-03T19:45:32.882Z,38.80
2023-03-03T19:48:07.802Z,38.80
2023-03-03T19:50:49.353Z,38.90
2023-03-03T19:53:29.293Z,39.00
2023-03-03T19:56:25.055Z,39.10
2023-03-03T19:59:07.532Z,39.10
2023-03-03T20:01:49.649Z,39.20
2023-03-03T20:04:35.728Z,39.20
2023-03-03T20:07:17.880Z,39.30
2023-03-03T20:09:56.733Z,39.60
2023-03-03T20:12:38.610Z,39.70
2023-03-03T20:15:16.004Z,39.80
2023-03-03T20:18:14.264Z,39.90
2023-03-03T20:20:57.768Z,39.80
2023-03-03T20:23:33.462Z,40.40
2023-03-03T20:26:09.915Z,40.00
2023-03-03T20:29:04.463Z,40.10
2023-03-03T20:31:42.950Z,40.10
2023-03-03T20:34:21.077Z,40.50
2023-03-03T20:37:00.441Z,40.50
2023-03-03T20:39:42.151Z,40.60
2023-03-03T20:42:21.565Z,40.50
2023-03-03T20:45:06.605Z,40.50
2023-03-03T20:47:45.343Z,40.50
2023-03-03T20:50:25.378Z,40.60
2023-03-03T20:53:03.704Z,40.80
2023-03-03T20:55:44.004Z,40.90
2023-03-03T20:58:19.704Z,40.80
2023-03-03T21:00:56.695Z,40.90
2023-03-03T21:03:34.344Z,41.00
2023-03-03T21:06:04.251Z,40.90
2023-03-03T21:08:43.580Z,40.90
2023-03-03T21:11:13.635Z,40.80
2023-03-03T21:13:44.277Z,41.00
2023-03-03T21:16:18.594Z,41.00
2023-03-03T21:18:59.278Z,40.90
2023-03-03T21:21:29.968Z,41.00
2023-03-03T21:23:59.714Z,41.00
2023-03-03T21:26:54.117Z,41.10
2023-03-03T21:29:25.851Z,40.90
2023-03-03T21:31:56.167Z,41.10
2023-03-03T21:34:31.267Z,41.10
2023-03-03T21:37:01.129Z,41.30
2023-03-03T21:39:32.103Z,41.30
2023-03-03T21:42:03.594Z,41.40
2023-03-03T21:44:37.718Z,41.60
2023-03-03T21:47:07.382Z,41.70
2023-03-03T21:49:37.414Z,41.60
2023-03-03T21:52:05.948Z,41.80
2023-03-03T21:54:34.352Z,41.90
2023-03-03T21:57:02.876Z,41.80
2023-03-03T21:59:31.353Z,41.80
2023-03-03T22:01:59.839Z,42.00
2023-03-03T22:04:28.363Z,42.00
2023-03-03T22:06:58.113Z,42.00
2023-03-03T22:09:26.630Z,42.00
2023-03-03T22:11:54.961Z,42.00
2023-03-03T22:14:23.300Z,42.10
2023-03-03T22:16:51.578Z,42.00
2023-03-03T22:19:20.120Z,41.90
2023-03-03T22:21:49.720Z,41.90
2023-03-03T22:24:20.429Z,41.80
2023-03-03T22:26:48.847Z,41.90
2023-03-03T22:29:22.717Z,41.90
2023-03-03T22:31:51.821Z,41.90
2023-03-03T22:34:20.432Z,41.90
2023-03-03T22:36:48.859Z,41.90
2023-03-03T22:39:17.297Z,41.90
2023-03-03T22:41:47.064Z,41.80
2023-03-03T22:44:15.529Z,41.80
2023-03-03T22:46:43.972Z,41.80
2023-03-03T22:49:12.334Z,41.80
2023-03-03T22:51:40.649Z,41.60
2023-03-03T22:54:09.105Z,41.60
2023-03-03T22:56:37.402Z,41.70
2023-03-03T22:59:07.032Z,41.50
2023-03-03T23:01:35.401Z,41.50
2023-03-03T23:04:03.784Z,41.30
2023-03-03T23:06:32.145Z,41.40
2023-03-03T23:09:00.458Z,42.10
2023-03-03T23:11:28.901Z,41.50
2023-03-03T23:13:57.364Z,41.50
2023-03-03T23:16:26.968Z,41.60
2023-03-03T23:18:55.380Z,41.60
2023-03-03T23:21:23.839Z,41.60
2023-03-03T23:23:52.164Z,41.70
2023-03-03T23:26:20.548Z,41.70
2023-03-03T23:28:48.913Z,41.70
2023-03-03T23:31:17.290Z,41.70
2023-03-03T23:33:47.073Z,41.80
2023-03-03T23:36:15.884Z,41.90
2023-03-03T23:38:44.226Z,41.80
2023-03-03T23:41:12.624Z,41.80
2023-03-03T23:43:40.952Z,42.00
2023-03-03T23:46:09.360Z,41.90
2023-03-03T23:48:37.764Z,42.10
2023-03-03T23:51:07.582Z,42.20
2023-03-03T23:53:35.929Z,42.30
2023-03-03T23:56:04.283Z,42.40
2023-03-03T23:58:32.724Z,42.50
